Data for 05/20/2018

Time Sea-Level Adjusted Pressure Absolute Pressure Temperature Relative Humidity Dew Point   
(mb) (inHg) (mb) (inHg) (C) (F) (%) (C) (F)
00:05 1021 30.15 850 25.1 6.1 43 81 3.1 37.6
00:10 1021 30.15 850 25.1 6.1 43 81 3.1 37.6
00:15 1021 30.15 851 25.13 6.1 43 81 3.1 37.5
00:20 1021 30.15 851 25.13 6.1 43 81 3.1 37.6
00:25 1021 30.15 850 25.1 6.1 43 81 3.2 37.7
00:30 1021 30.15 850 25.1 6.1 42.9 81 3.1 37.7
00:35 1021 30.15 850 25.1 6.1 43 81 3.2 37.7
00:40 1021 30.15 850 25.1 6.1 43 81 3.2 37.7
00:45 1021 30.15 850 25.1 6.1 43 82 3.2 37.8
00:50 1021 30.15 850 25.1 6.1 43 82 3.2 37.8
00:55 1021 30.15 850 25.1 6.1 43 82 3.3 37.9
01:00 1021 30.15 850 25.1 6.1 42.9 82 3.3 37.9
01:05 1021 30.15 850 25.1 6.1 43 82 3.3 37.9
01:10 1021 30.15 850 25.1 6.1 43 82 3.3 38
01:15 1021 30.15 850 25.1 6.1 43 82 3.3 38
01:20 1021 30.15 850 25.1 6.1 43 83 3.4 38.1
01:25 1021 30.15 850 25.1 6.1 43 83 3.4 38.1
01:30 1021 30.15 850 25.1 6.1 43 83 3.4 38.1
01:35 1021 30.15 850 25.1 6.1 43 83 3.4 38
01:40 1021 30.15 850 25.1 6.1 43 83 3.4 38.1
01:45 1021 30.15 850 25.1 6.1 43 83 3.4 38.1
01:50 1021 30.15 850 25.1 6.1 43 83 3.4 38.1
01:55 1021 30.15 850 25.1 6.1 42.9 83 3.4 38
02:00 1021 30.15 850 25.1 6.1 43 83 3.4 38.1
02:05 1020 30.12 850 25.1 6.1 43 83 3.4 38.1
02:10 1021 30.15 850 25.1 6.1 43 83 3.4 38.1
02:15 1021 30.15 850 25.1 6.1 43 82 3.3 37.9
02:20 1021 30.15 850 25.1 6.2 43.1 82 3.3 37.9
02:25 1020 30.12 850 25.1 6.2 43.2 81 3.3 37.9
02:30 1020 30.12 850 25.1 6.2 43.2 81 3.1 37.7
02:35 1020 30.12 850 25.1 6.2 43.2 80 3.1 37.6
02:40 1020 30.12 850 25.1 6.3 43.4 80 3.1 37.6
02:45 1020 30.12 850 25.1 6.3 43.4 80 3.1 37.6
02:50 1020 30.12 850 25.1 6.4 43.4 79 3.1 37.5
02:55 1020 30.12 849 25.07 6.3 43.4 79 3.1 37.5
03:00 1020 30.12 849 25.07 6.3 43.3 80 3.1 37.6
03:05 1020 30.12 849 25.07 6.2 43.2 80 3.1 37.5
03:10 1020 30.12 849 25.07 6.2 43.2 80 3 37.4
03:15 1020 30.12 849 25.07 6.3 43.4 79 2.9 37.3
03:20 1020 30.12 849 25.07 6.3 43.3 79 2.9 37.3
03:25 1020 30.12 849 25.07 6.3 43.3 79 2.8 37.1
03:30 1020 30.12 849 25.07 6.3 43.3 78 2.8 37
03:35 1020 30.12 849 25.07 6.3 43.3 78 2.7 36.9
03:40 1020 30.12 849 25.07 6.2 43.2 78 2.6 36.7
03:45 1020 30.12 849 25.07 6.2 43.2 78 2.6 36.7
03:50 1020 30.12 849 25.07 6.2 43.2 78 2.6 36.7
03:55 1020 30.12 849 25.07 6.2 43.1 78 2.7 36.9
04:00 1020 30.12 849 25.07 6.1 43 79 2.8 37
04:05 1020 30.12 849 25.07 6.2 43.1 79 2.8 37
04:10 1020 30.12 849 25.07 6.2 43.1 79 2.8 37
04:15 1020 30.12 849 25.07 6.1 43.1 79 2.8 37
04:20 1020 30.12 849 25.07 6.1 43 79 2.8 37.1
04:25 1020 30.12 849 25.07 6.1 43.1 79 2.8 37.1
04:30 1020 30.12 849 25.07 6.1 43 80 2.9 37.2
04:35 1020 30.12 849 25.07 6.1 43 80 2.9 37.2
04:40 1020 30.12 849 25.07 6.2 43.1 79 2.9 37.2
04:45 1020 30.12 849 25.07 6.2 43.1 80 2.9 37.3
04:50 1020 30.12 849 25.07 6.1 43 79 2.8 37.1
04:55 1020 30.12 849 25.07 6 42.9 80 2.8 37.1
05:00 1020 30.12 849 25.07 5.9 42.7 80 2.8 37
05:05 1020 30.12 849 25.07 5.8 42.5 81 2.8 37
05:10 1020 30.12 849 25.07 5.8 42.5 81 2.8 37
05:15 1020 30.12 849 25.07 5.8 42.4 81 2.7 36.9
05:20 1020 30.12 849 25.07 5.7 42.3 80 2.6 36.7
05:25 1020 30.12 849 25.07 5.7 42.2 80 2.6 36.6
05:30 1020 30.12 849 25.07 5.5 42 81 2.5 36.6
05:35 1020 30.12 849 25.07 5.5 41.9 81 2.5 36.5
05:40 1020 30.12 849 25.07 5.4 41.8 81 2.5 36.5
05:45 1020 30.12 849 25.07 5.4 41.7 82 2.6 36.6
05:50 1020 30.12 849 25.07 5.4 41.8 82 2.6 36.7
05:55 1020 30.12 849 25.07 5.4 41.7 82 2.6 36.7
06:00 1020 30.12 849 25.07 5.4 41.7 82 2.6 36.7
06:05 1020 30.12 849 25.07 5.4 41.8 82 2.6 36.7
06:10 1020 30.12 849 25.07 5.4 41.8 82 2.6 36.7
06:15 1020 30.12 849 25.07 5.6 42 82 2.7 36.8
06:20 1020 30.12 849 25.07 5.7 42.3 81 2.7 36.9
06:25 1020 30.12 849 25.07 5.8 42.4 81 2.7 36.9
06:30 1020 30.12 849 25.07 5.8 42.5 81 2.8 37
06:35 1020 30.12 849 25.07 5.9 42.7 80 2.8 37
06:40 1020 30.12 849 25.07 6 42.8 80 2.9 37.1
06:45 1020 30.12 849 25.07 6.1 43.1 80 2.9 37.3
06:50 1020 30.12 849 25.07 6.3 43.4 79 2.9 37.2
06:55 1020 30.12 849 25.07 6.4 43.6 79 3 37.5
07:00 1020 30.12 849 25.07 6.5 43.7 79 3.1 37.6
07:05 1020 30.12 849 25.07 6.7 44.1 78 3.1 37.7
07:10 1020 30.12 849 25.07 6.9 44.5 77 3.1 37.6
07:15 1020 30.12 849 25.07 7.2 44.9 77 3.4 38.1
07:20 1020 30.12 849 25.07 7.3 45.2 76 3.4 38.2
07:25 1020 30.12 849 25.07 7.4 45.4 76 3.5 38.2
07:30 1020 30.12 849 25.07 7.6 45.6 75 3.5 38.3
07:35 1020 30.12 849 25.07 7.8 46 75 3.6 38.5
07:40 1020 30.12 849 25.07 8 46.4 75 3.8 38.8
07:45 1020 30.12 849 25.07 8.1 46.5 74 3.7 38.7
07:50 1020 30.12 849 25.07 8.1 46.5 74 3.8 38.8
07:55 1020 30.12 849 25.07 8.2 46.7 72 3.5 38.4
08:00 1020 30.12 849 25.07 8.4 47.1 72 3.7 38.7
08:05 1020 30.12 849 25.07 8.5 47.4 71 3.7 38.6
08:10 1020 30.12 849 25.07 8.8 47.8 70 3.6 38.5
08:15 1020 30.12 849 25.07 9 48.3 69 3.8 38.8
08:20 1020 30.12 849 25.07 9.2 48.6 69 3.8 38.9
08:25 1020 30.12 849 25.07 9.6 49.2 68 3.9 39
08:30 1020 30.12 849 25.07 10 50 67 4.1 39.4
08:35 1020 30.12 849 25.07 10 49.9 67 4.1 39.5
08:40 1020 30.12 849 25.07 10 50 65 3.8 38.8
08:45 1020 30.12 849 25.07 10.1 50.2 66 4 39.2
08:50 1020 30.12 849 25.07 10 50 66 4 39.2
08:55 1020 30.12 849 25.07 10.4 50.7 64 4 39.2
09:00 1020 30.12 849 25.07 10.7 51.3 64 4.2 39.5
09:05 1020 30.12 849 25.07 10.6 51.1 64 4.1 39.3
09:10 1020 30.12 849 25.07 11.3 52.4 61 4.2 39.6
09:15 1020 30.12 849 25.07 11.2 52.2 60 3.8 38.8
09:20 1020 30.12 849 25.07 11.3 52.4 60 3.8 38.9
09:25 1020 30.12 849 25.07 11.6 52.9 60 4.2 39.6
09:30 1020 30.12 849 25.07 12 53.6 59 4.3 39.8
09:35 1020 30.12 849 25.07 11.9 53.4 59 4.1 39.3
09:40 1020 30.12 849 25.07 12.3 54.1 58 4.4 39.9
09:45 1020 30.12 849 25.07 12.9 55.2 56 4.5 40.1
09:50 1020 30.12 849 25.07 12.4 54.3 60 4.9 40.8
09:55 1020 30.12 849 25.07 11.9 53.5 59 4.3 39.7
10:00 1020 30.12 849 25.07 13.1 55.5 55 4.3 39.8
10:05 1020 30.12 849 25.07 13.4 56.1 56 4.9 40.8
10:10 1020 30.12 849 25.07 12.8 55.1 56 4.4 40
10:15 1020 30.12 849 25.07 13.9 56.9 54 4.7 40.4
10:20 1020 30.12 849 25.07 13.4 56.1 56 4.9 40.8
10:25 1019 30.09 849 25.07 13.6 56.4 56 5 41
10:30 1019 30.09 849 25.07 13.2 55.8 56 4.8 40.7
10:35 1019 30.09 849 25.07 13.4 56.2 55 4.7 40.5
10:40 1019 30.09 849 25.07 14.2 57.6 52 4.7 40.5
10:45 1019 30.09 849 25.07 14.3 57.7 52 4.8 40.6
10:50 1019 30.09 848 25.04 14.1 57.3 54 5.1 41.2
10:55 1019 30.09 848 25.04 14.2 57.6 53 4.8 40.6
11:00 1019 30.09 848 25.04 14.8 58.7 53 5.5 41.8
11:05 1019 30.09 848 25.04 13.7 56.7 55 4.8 40.7
11:10 1019 30.09 848 25.04 13.5 56.3 58 5.4 41.7
11:15 1019 30.09 848 25.04 14.2 57.5 53 4.7 40.5
11:20 1019 30.09 848 25.04 14.8 58.6 54 5.5 42
11:25 1019 30.09 848 25.04 14.1 57.4 56 5.5 41.8
11:30 1019 30.09 848 25.04 14 57.1 55 5.1 41.2
11:35 1019 30.09 848 25.04 15.1 59.1 53 5.6 42.1
11:40 1019 30.09 848 25.04 14.5 58.2 55 5.7 42.2
11:45 1019 30.09 848 25.04 15.7 60.3 49 5 41.1
11:50 1019 30.09 848 25.04 16.1 61.1 49 5.4 41.8
11:55 1019 30.09 848 25.04 16.4 61.5 50 6 42.8
12:00 1019 30.09 848 25.04 16 60.8 50 5.7 42.3
12:05 1019 30.09 848 25.04 16.2 61.2 48 5.3 41.5
12:10 1019 30.09 848 25.04 16.3 61.3 50 6 42.8
12:15 1019 30.09 848 25.04 16.4 61.5 49 5.7 42.3
12:20 1018 30.06 848 25.04 16.9 62.3 46 5.4 41.8
12:25 1018 30.06 848 25.04 17.2 63 48 6.3 43.3
12:30 1018 30.06 848 25.04 17.9 64.1 45 5.7 42.3
12:35 1018 30.06 847 25.01 18.6 65.5 43 6 42.8
12:40 1018 30.06 847 25.01 19.1 66.4 43 6.3 43.3
12:45 1018 30.06 847 25.01 18.2 64.7 47 6.7 44
12:50 1018 30.06 847 25.01 18.6 65.4 44 6.3 43.4
12:55 1018 30.06 847 25.01 18.9 65.9 42 5.8 42.4
13:00 1018 30.06 847 25.01 19.6 67.3 42 6.5 43.7
13:05 1018 30.06 847 25.01 18.9 65.9 46 7 44.6
13:10 1018 30.06 847 25.01 18.7 65.7 46 7 44.6
13:15 1018 30.06 847 25.01 18.6 65.4 45 6.7 44
13:20 1018 30.06 847 25.01 19.8 67.6 42 6.5 43.7
13:25 1018 30.06 847 25.01 19.7 67.4 43 6.9 44.4
13:30 1017 30.03 847 25.01 19.9 67.7 41 6.4 43.6
13:35 1017 30.03 847 25.01 20.2 68.4 42 7.1 44.7
13:40 1017 30.03 847 25.01 20.2 68.3 42 6.8 44.3
13:45 1017 30.03 847 25.01 19.7 67.5 40 6 42.9
13:50 1017 30.03 847 25.01 20 68.1 39 5.7 42.2
13:55 1017 30.03 846 24.98 20.1 68.2 41 6.5 43.8
14:00 1017 30.03 846 24.98 19.7 67.4 40 5.8 42.4
14:05 1017 30.03 846 24.98 19.1 66.5 42 6.2 43.2
14:10 1017 30.03 846 24.98 18.5 65.3 42 5.7 42.2
14:15 1017 30.03 846 24.98 18.2 64.7 46 6.6 43.8
14:20 1017 30.03 846 24.98 17.5 63.5 47 6.2 43.2
14:25 1017 30.03 846 24.98 17.7 63.9 47 6.5 43.7
14:30 1017 30.03 846 24.98 17.2 62.9 48 6.3 43.3
14:35 1017 30.03 846 24.98 17.2 62.9 49 6.6 43.9
14:40 1017 30.03 846 24.98 16.9 62.4 50 6.5 43.8
14:45 1017 30.03 846 24.98 16.5 61.7 57 8.1 46.5
14:50 1017 30.03 847 25.01 16 60.7 58 7.7 45.9
14:55 1017 30.03 846 24.98 15.8 60.4 60 8.1 46.6
15:00 1017 30.03 846 24.98 15.7 60.2 62 8.6 47.5
15:05 1017 30.03 846 24.98 15.9 60.5 63 8.9 47.9
15:10 1017 30.03 846 24.98 16.6 61.8 59 8.5 47.3
15:15 1017 30.03 846 24.98 17.2 63 51 7 44.6
15:20 1017 30.03 846 24.98 17.8 64 48 6.9 44.4
15:25 1017 30.03 846 24.98 18.3 64.9 48 7.3 45.2
15:30 1016 30 846 24.98 18.6 65.5 48 7.6 45.6
15:35 1016 30 846 24.98 18.5 65.2 48 7.4 45.3
15:40 1016 30 846 24.98 18.8 65.8 45 6.8 44.3
15:45 1016 30 845 24.95 19.1 66.3 45 6.9 44.4
15:50 1016 30 845 24.95 19.3 66.7 43 6.6 43.8
15:55 1016 30 845 24.95 19.3 66.8 39 5.2 41.3
16:00 1016 30 845 24.95 19.4 66.9 41 6.1 43
16:05 1016 30 845 24.95 18.8 65.9 44 6.4 43.5
16:10 1016 30 845 24.95 18.9 65.9 42 5.7 42.2
16:15 1016 30 845 24.95 18.8 65.9 41 5.5 41.9
16:20 1016 30 845 24.95 19.2 66.5 41 5.7 42.2
16:25 1016 30 845 24.95 19.3 66.7 41 5.8 42.4
16:30 1016 30 845 24.95 19.4 66.9 40 5.7 42.3
16:35 1016 30 845 24.95 19.7 67.5 39 5.5 42
16:40 1016 30 845 24.95 20.2 68.4 33 3.8 38.8
16:45 1016 30 845 24.95 19.2 66.6 38 4.9 40.8
16:50 1016 30 845 24.95 18.6 65.5 40 5 41
16:55 1016 30 845 24.95 18.7 65.7 39 4.6 40.2
17:00 1016 30 845 24.95 18.3 65 41 5 41
17:05 1016 30 845 24.95 18.3 64.9 42 5.4 41.8
17:10 1016 30 845 24.95 18.6 65.4 45 6.5 43.6
17:15 1016 30 845 24.95 18.3 65 45 6.5 43.6
17:20 1016 30 845 24.95 18.3 65 46 6.5 43.7
17:25 1016 30 845 24.95 18.8 65.8 48 7.7 45.8
17:30 1016 30 845 24.95 18.6 65.4 48 7.5 45.5
17:35 1016 30 845 24.95 18.1 64.6 51 8 46.3
17:40 1016 30 845 24.95 17.9 64.3 51 7.8 46
17:45 1016 30 845 24.95 17.5 63.4 52 7.8 46
17:50 1016 30 845 24.95 17.3 63.2 54 8.1 46.5
17:55 1016 30 845 24.95 17.3 63.1 52 7.4 45.3
18:00 1016 30 845 24.95 17 62.7 50 6.6 44
18:05 1016 30 845 24.95 17.1 62.7 50 6.5 43.7
18:10 1016 30 845 24.95 16.9 62.4 52 7 44.7
18:15 1016 30 845 24.95 16.7 62.1 53 7.3 45.1
18:20 1016 30 845 24.95 16.7 62.1 54 7.5 45.4
18:25 1016 30 845 24.95 16.7 62.1 54 7.6 45.6
18:30 1016 30 845 24.95 16.8 62.3 54 7.5 45.5
18:35 1016 30 845 24.95 16.9 62.5 54 7.7 45.8
18:40 1016 30 845 24.95 16.9 62.5 53 7.5 45.5
18:45 1015 29.97 845 24.95 17 62.6 53 7.5 45.4
18:50 1015 29.97 845 24.95 17.1 62.7 53 7.5 45.6
18:55 1015 29.97 845 24.95 17.3 63.2 51 7.1 44.8
19:00 1015 29.97 845 24.95 17.4 63.3 50 7.1 44.8
19:05 1015 29.97 845 24.95 17.7 63.8 48 6.7 44
19:10 1015 29.97 845 24.95 17.7 63.9 48 6.7 44.1
19:15 1015 29.97 845 24.95 17.7 63.8 47 6.5 43.7
19:20 1015 29.97 844 24.92 17.5 63.4 48 6.5 43.7
19:25 1015 29.97 844 24.92 17.4 63.3 48 6.4 43.5
19:30 1015 29.97 844 24.92 17.4 63.2 48 6.4 43.5
19:35 1015 29.97 844 24.92 17.3 63.1 48 6.1 43
19:40 1015 29.97 844 24.92 17.3 63.1 48 6.2 43.1
19:45 1015 29.97 844 24.92 17.3 63.2 47 6.2 43.1
19:50 1015 29.97 844 24.92 17.4 63.4 47 6.1 42.9
19:55 1015 29.97 844 24.92 17.5 63.4 47 6.2 43.1
20:00 1015 29.97 844 24.92 17.4 63.3 48 6.3 43.3
20:05 1015 29.97 844 24.92 17.3 63.2 47 6.2 43.1
20:10 1015 29.97 844 24.92 17.3 63.1 47 6.1 43
20:15 1015 29.97 844 24.92 17.2 62.9 48 6.1 43
20:20 1015 29.97 845 24.95 17.1 62.8 48 6.2 43.2
20:25 1015 29.97 845 24.95 17 62.5 49 6.3 43.4
20:30 1015 29.97 845 24.95 16.9 62.4 50 6.5 43.7
20:35 1015 29.97 845 24.95 16.7 62.1 51 6.5 43.8
20:40 1015 29.97 845 24.95 16.6 61.8 51 6.5 43.8
20:45 1015 29.97 844 24.92 16.4 61.5 52 6.5 43.6
20:50 1015 29.97 844 24.92 16.2 61.1 52 6.5 43.7
20:55 1015 29.97 845 24.95 15.9 60.7 53 6.4 43.6
21:00 1015 29.97 845 24.95 15.8 60.4 54 6.6 43.8
21:05 1015 29.97 845 24.95 15.7 60.2 54 6.4 43.6
21:10 1015 29.97 845 24.95 15.6 60.1 54 6.3 43.4
21:15 1015 29.97 845 24.95 15.5 59.9 55 6.6 43.8
21:20 1015 29.97 845 24.95 15.3 59.6 56 6.6 43.8
21:25 1016 30 845 24.95 15.3 59.5 56 6.5 43.7
21:30 1016 30 845 24.95 15.3 59.5 55 6.5 43.7
21:35 1016 30 845 24.95 15.4 59.6 55 6.5 43.8
21:40 1016 30 845 24.95 15.3 59.6 55 6.5 43.7
21:45 1016 30 845 24.95 15.3 59.5 55 6.5 43.7
21:50 1016 30 845 24.95 15.2 59.3 56 6.5 43.7
21:55 1016 30 845 24.95 15.2 59.4 56 6.5 43.7
22:00 1016 30 845 24.95 15.3 59.5 56 6.5 43.8
22:05 1016 30 845 24.95 15.4 59.6 56 6.7 44.1
22:10 1016 30 845 24.95 15.3 59.6 57 6.8 44.3
22:15 1016 30 845 24.95 15.3 59.5 57 7 44.6
22:20 1016 30 845 24.95 15.3 59.5 58 7.1 44.9
22:25 1016 30 845 24.95 15.2 59.4 59 7.3 45.1
22:30 1016 30 845 24.95 15.1 59.2 60 7.4 45.2
22:35 1016 30 845 24.95 14.9 58.9 60 7.4 45.3
22:40 1016 30 845 24.95 14.9 58.8 61 7.5 45.5
22:45 1016 30 845 24.95 14.8 58.6 62 7.6 45.7
22:50 1016 30 845 24.95 14.7 58.4 63 7.7 45.9
22:55 1016 30 845 24.95 14.5 58.1 63 7.6 45.7
23:00 1016 30 845 24.95 14.5 58.2 64 7.8 46.1
23:05 1016 30 845 24.95 14.4 58 64 7.8 46
23:10 1016 30 845 24.95 14.4 58 64 7.8 46
23:15 1016 30 845 24.95 14.5 58.1 64 7.8 46.1
23:20 1016 30 845 24.95 14.5 58.1 64 7.9 46.3
23:25 1016 30 845 24.95 14.4 57.9 65 7.9 46.3
23:30 1016 30 845 24.95 14.3 57.8 65 7.9 46.3
23:35 1016 30 845 24.95 14.2 57.6 66 8 46.4
23:40 1016 30 845 24.95 14.1 57.5 66 8 46.4
23:45 1016 30 845 24.95 14.1 57.4 66 8 46.4
23:50 1016 30 845 24.95 14.1 57.3 67 8 46.5
23:55 1016 30 846 24.98 14 57.3 68 8.2 46.7
24:00 1016 30 846 24.98 13.3 56 68 7.7 45.8